createdAt,value
2019-06-10T00:00:17.611Z,12.40
2019-06-10T00:02:47.349Z,12.40
2019-06-10T00:05:17.063Z,12.40
2019-06-10T00:07:46.778Z,12.40
2019-06-10T00:10:17.954Z,12.40
2019-06-10T00:12:51.277Z,12.40
2019-06-10T00:15:21.332Z,12.40
2019-06-10T00:18:24.610Z,12.40
2019-06-10T00:20:32.784Z,12.30
2019-06-10T00:23:04.051Z,12.30
2019-06-10T00:25:33.961Z,12.30
2019-06-10T00:28:05.682Z,12.30
2019-06-10T00:30:35.148Z,12.30
2019-06-10T00:33:06.495Z,12.30
2019-06-10T00:35:36.773Z,12.20
2019-06-10T00:38:08.890Z,12.20
2019-06-10T00:40:37.854Z,12.20
2019-06-10T00:43:09.122Z,12.20
2019-06-10T00:45:41.041Z,12.20
2019-06-10T00:48:20.173Z,12.10
2019-06-10T00:50:42.980Z,12.10
2019-06-10T00:53:14.494Z,12.00
2019-06-10T00:55:44.085Z,12.00
2019-06-10T00:58:14.208Z,11.90
2019-06-10T01:00:44.049Z,11.80
2019-06-10T01:03:15.300Z,11.80
2019-06-10T01:05:45.185Z,11.80
2019-06-10T01:08:15.728Z,11.80
2019-06-10T01:10:45.666Z,11.80
2019-06-10T01:13:15.560Z,11.80
2019-06-10T01:15:45.423Z,11.80
2019-06-10T01:18:33.607Z,11.80
2019-06-10T01:21:07.936Z,11.80
2019-06-10T01:23:37.727Z,11.80
2019-06-10T01:26:07.596Z,11.90
2019-06-10T01:28:37.457Z,11.90
2019-06-10T01:31:10.871Z,11.90
2019-06-10T01:33:38.470Z,11.90
2019-06-10T01:36:10.258Z,11.90
2019-06-10T01:38:40.991Z,11.80
2019-06-10T01:41:12.424Z,11.90
2019-06-10T01:43:42.112Z,11.80
2019-06-10T01:46:14.118Z,11.80
2019-06-10T01:48:47.841Z,11.80
2019-06-10T01:51:21.507Z,11.80
2019-06-10T01:53:51.679Z,11.70
2019-06-10T01:56:21.737Z,11.70
2019-06-10T01:58:51.659Z,11.70
2019-06-10T02:01:41.395Z,11.70
2019-06-10T02:04:14.359Z,11.70
2019-06-10T02:06:42.652Z,11.70
2019-06-10T02:09:15.072Z,11.70
2019-06-10T02:11:43.569Z,11.70
2019-06-10T02:14:16.626Z,11.60
2019-06-10T02:16:44.598Z,11.60
2019-06-10T02:19:15.766Z,11.60
2019-06-10T02:21:45.731Z,11.60
2019-06-10T02:24:16.394Z,11.60
2019-06-10T02:26:46.765Z,11.60
2019-06-10T02:29:17.298Z,11.60
2019-06-10T02:31:47.712Z,11.60
2019-06-10T02:34:22.196Z,11.70
2019-06-10T02:36:48.823Z,11.70
2019-06-10T02:39:24.615Z,11.70
2019-06-10T02:41:53.559Z,11.70
2019-06-10T02:44:32.211Z,11.70
2019-06-10T02:46:54.568Z,11.70
2019-06-10T02:49:46.602Z,11.70
2019-06-10T02:51:55.874Z,11.70
2019-06-10T02:54:31.571Z,11.70
2019-06-10T02:56:57.898Z,11.70
2019-06-10T02:59:31.669Z,11.70
2019-06-10T03:01:59.026Z,11.70
2019-06-10T03:04:32.579Z,11.70
2019-06-10T03:07:03.200Z,11.70
2019-06-10T03:09:34.695Z,11.70
2019-06-10T03:12:04.558Z,11.70
2019-06-10T03:14:42.160Z,11.70
2019-06-10T03:17:13.037Z,11.70
2019-06-10T03:19:50.082Z,11.60
2019-06-10T03:22:14.476Z,11.60
2019-06-10T03:24:44.171Z,11.60
2019-06-10T03:27:16.127Z,11.60
2019-06-10T03:29:46.179Z,11.60
2019-06-10T03:32:17.657Z,11.60
2019-06-10T03:34:47.792Z,11.60
2019-06-10T03:37:18.323Z,11.50
2019-06-10T03:39:48.175Z,11.50
2019-06-10T03:42:18.798Z,11.50
2019-06-10T03:44:48.618Z,11.50
2019-06-10T03:47:19.394Z,11.50
2019-06-10T03:49:52.795Z,11.50
2019-06-10T03:52:23.534Z,11.50
2019-06-10T03:54:52.765Z,11.60
2019-06-10T03:57:24.207Z,11.60
2019-06-10T03:59:55.281Z,11.50
2019-06-10T04:02:25.579Z,11.50
2019-06-10T04:04:56.492Z,11.60
2019-06-10T04:07:29.620Z,11.50
2019-06-10T04:09:57.632Z,11.50
2019-06-10T04:12:27.869Z,11.50
2019-06-10T04:14:58.901Z,11.50
2019-06-10T04:17:28.827Z,11.50
2019-06-10T04:20:09.193Z,11.50
2019-06-10T04:22:30.011Z,11.50
2019-06-10T04:24:59.718Z,11.40
2019-06-10T04:27:32.825Z,11.40
2019-06-10T04:30:03.326Z,11.40
2019-06-10T04:32:33.260Z,11.40
2019-06-10T04:35:02.989Z,11.40
2019-06-10T04:37:32.778Z,11.50
2019-06-10T04:40:03.005Z,11.50
2019-06-10T04:42:33.114Z,11.50
2019-06-10T04:45:06.169Z,11.40
2019-06-10T04:47:35.933Z,11.40
2019-06-10T04:50:18.431Z,11.40
2019-06-10T04:52:37.154Z,11.40
2019-06-10T04:55:06.959Z,11.40
2019-06-10T04:57:36.767Z,11.40
2019-06-10T05:00:12.067Z,11.50
2019-06-10T05:02:39.546Z,11.50
2019-06-10T05:05:09.216Z,11.50
2019-06-10T05:07:40.014Z,11.50
2019-06-10T05:10:12.296Z,11.50
2019-06-10T05:12:43.317Z,11.50
2019-06-10T05:15:14.388Z,11.60
2019-06-10T05:17:44.103Z,11.60
2019-06-10T05:20:14.086Z,11.60
2019-06-10T05:22:46.349Z,11.50
2019-06-10T05:25:15.754Z,11.60
2019-06-10T05:27:45.514Z,11.60
2019-06-10T05:30:15.232Z,11.60
2019-06-10T05:32:44.864Z,11.60
2019-06-10T05:35:14.576Z,11.60
2019-06-10T05:37:44.352Z,11.60
2019-06-10T05:40:14.935Z,11.60
2019-06-10T05:42:44.639Z,11.60
2019-06-10T05:45:14.403Z,11.60
2019-06-10T05:47:44.175Z,11.60
2019-06-10T05:50:15.355Z,11.60
2019-06-10T05:52:45.077Z,11.60
2019-06-10T05:55:15.680Z,11.60
2019-06-10T05:57:45.466Z,11.60
2019-06-10T06:00:15.557Z,11.70
2019-06-10T06:02:45.860Z,11.70
2019-06-10T06:05:15.961Z,11.70
2019-06-10T06:08:01.514Z,11.70
2019-06-10T06:10:18.754Z,11.70
2019-06-10T06:12:48.670Z,11.70
2019-06-10T06:15:18.463Z,11.70
2019-06-10T06:18:01.048Z,11.70
2019-06-10T06:20:23.392Z,11.80
2019-06-10T06:22:52.360Z,11.80
2019-06-10T06:25:24.072Z,11.80
2019-06-10T06:27:53.619Z,11.90
2019-06-10T06:30:25.982Z,11.90
2019-06-10T06:32:55.888Z,11.90
2019-06-10T06:35:26.399Z,11.90
2019-06-10T06:37:56.248Z,11.90
2019-06-10T06:40:27.093Z,11.90
2019-06-10T06:42:57.040Z,11.90
2019-06-10T06:45:27.612Z,11.90
2019-06-10T06:47:57.447Z,11.90
2019-06-10T06:50:28.447Z,12.00
2019-06-10T06:53:19.817Z,12.00
2019-06-10T06:55:31.310Z,12.00
2019-06-10T06:58:03.381Z,12.00
2019-06-10T07:00:49.181Z,12.00
2019-06-10T07:03:06.356Z,12.00
2019-06-10T07:05:38.961Z,12.10
2019-06-10T07:08:13.166Z,12.10
2019-06-10T07:10:54.067Z,12.20
2019-06-10T07:13:26.148Z,12.30
2019-06-10T07:15:55.985Z,12.40
2019-06-10T07:18:25.712Z,12.40
2019-06-10T07:20:55.529Z,12.50
2019-06-10T07:23:25.410Z,12.60
2019-06-10T07:25:55.202Z,12.60
2019-06-10T07:28:24.966Z,12.70
2019-06-10T07:30:55.384Z,12.80
2019-06-10T07:33:25.278Z,12.80
2019-06-10T07:35:56.629Z,12.80
2019-06-10T07:38:26.539Z,12.80
2019-06-10T07:40:57.471Z,12.80
2019-06-10T07:43:27.158Z,12.90
2019-06-10T07:45:56.936Z,12.90
2019-06-10T07:48:26.645Z,12.90
2019-06-10T07:50:56.322Z,12.90
2019-06-10T07:53:25.967Z,13.00
2019-06-10T07:55:55.756Z,13.10
2019-06-10T07:58:25.770Z,13.10
2019-06-10T08:00:55.492Z,13.10
2019-06-10T08:03:26.334Z,13.20
2019-06-10T08:05:56.117Z,13.20
2019-06-10T08:08:25.844Z,13.30
2019-06-10T08:10:55.490Z,13.40
2019-06-10T08:13:25.356Z,13.50
2019-06-10T08:15:55.062Z,13.60
2019-06-10T08:18:24.823Z,13.70
2019-06-10T08:20:54.531Z,13.80
2019-06-10T08:23:24.310Z,13.80
2019-06-10T08:25:57.835Z,13.90
2019-06-10T08:28:27.793Z,13.90
2019-06-10T08:30:57.592Z,14.00
2019-06-10T08:33:27.274Z,14.00
2019-06-10T08:36:00.375Z,14.00
2019-06-10T08:38:32.695Z,14.10
2019-06-10T08:40:59.664Z,14.10
2019-06-10T08:43:29.356Z,14.10
2019-06-10T08:45:59.086Z,14.20
2019-06-10T08:48:28.864Z,14.30
2019-06-10T08:50:58.726Z,14.30
2019-06-10T08:53:42.554Z,14.40
2019-06-10T08:56:13.104Z,14.40
2019-06-10T08:58:54.764Z,14.40
2019-06-10T09:01:25.362Z,14.40
2019-06-10T09:03:55.187Z,14.40
2019-06-10T09:06:24.911Z,14.40
2019-06-10T09:08:54.870Z,14.30
2019-06-10T09:11:24.637Z,14.30
2019-06-10T09:13:54.431Z,14.30
2019-06-10T09:16:24.256Z,14.20
2019-06-10T09:18:55.233Z,14.20
2019-06-10T09:21:25.307Z,14.10
2019-06-10T09:23:59.775Z,14.00
2019-06-10T09:26:26.550Z,14.00
2019-06-10T09:28:56.724Z,13.90
2019-06-10T09:31:27.131Z,13.90
2019-06-10T09:33:57.224Z,13.90
2019-06-10T09:36:26.963Z,13.80
2019-06-10T09:38:56.776Z,13.70
2019-06-10T09:41:36.312Z,13.60
2019-06-10T09:43:57.931Z,13.60
2019-06-10T09:46:33.094Z,13.60
2019-06-10T09:49:03.937Z,13.70
2019-06-10T09:51:34.325Z,13.80
2019-06-10T09:54:06.650Z,13.90
2019-06-10T09:56:35.647Z,14.00
2019-06-10T09:59:08.386Z,14.10
2019-06-10T10:01:38.264Z,14.30
2019-06-10T10:04:08.064Z,14.30
2019-06-10T10:06:38.069Z,14.30
2019-06-10T10:09:08.636Z,14.30
2019-06-10T10:11:38.487Z,14.30
2019-06-10T10:14:10.079Z,14.40
2019-06-10T10:16:40.292Z,14.40
2019-06-10T10:19:13.147Z,14.50
2019-06-10T10:21:46.866Z,14.50
2019-06-10T10:24:15.098Z,14.50
2019-06-10T10:26:47.153Z,14.50
2019-06-10T10:29:16.549Z,14.60
2019-06-10T10:31:49.054Z,14.60
2019-06-10T10:34:17.614Z,14.60
2019-06-10T10:36:48.740Z,14.60
2019-06-10T10:39:21.358Z,14.60
2019-06-10T10:41:51.963Z,14.70
2019-06-10T10:44:21.382Z,14.80
2019-06-10T10:46:53.766Z,14.80
2019-06-10T10:49:22.492Z,14.80
2019-06-10T10:51:53.512Z,14.80
2019-06-10T10:54:32.824Z,14.80
2019-06-10T10:56:59.064Z,14.80
2019-06-10T10:59:26.796Z,14.80
2019-06-10T11:01:56.503Z,15.00
2019-06-10T11:04:26.227Z,15.10
2019-06-10T11:06:57.952Z,15.20
2019-06-10T11:09:28.916Z,15.20
2019-06-10T11:11:59.919Z,15.10
2019-06-10T11:14:30.336Z,14.90
2019-06-10T11:17:19.346Z,14.70
2019-06-10T11:19:52.872Z,14.50
2019-06-10T11:22:23.193Z,14.40
2019-06-10T11:24:54.846Z,14.40
2019-06-10T11:27:23.513Z,14.30
2019-06-10T11:29:56.398Z,14.20
2019-06-10T11:32:24.717Z,14.10
2019-06-10T11:34:56.969Z,14.00
2019-06-10T11:37:25.829Z,14.00
2019-06-10T11:39:56.524Z,13.90
2019-06-10T11:42:26.458Z,13.70
2019-06-10T11:44:59.490Z,13.60
2019-06-10T11:47:27.424Z,13.50
2019-06-10T11:49:58.081Z,13.40
2019-06-10T11:52:28.881Z,13.20
2019-06-10T11:55:11.703Z,13.20
2019-06-10T11:57:32.373Z,13.20
2019-06-10T12:00:13.221Z,13.20
2019-06-10T12:02:33.674Z,13.10
2019-06-10T12:05:05.106Z,13.10
2019-06-10T12:07:36.658Z,13.20
2019-06-10T12:10:08.474Z,13.20
2019-06-10T12:12:38.279Z,13.20
2019-06-10T12:15:09.299Z,13.20
2019-06-10T12:17:46.906Z,13.20
2019-06-10T12:20:13.306Z,13.20
2019-06-10T12:22:43.309Z,13.20
2019-06-10T12:25:31.653Z,13.10
2019-06-10T12:27:45.573Z,13.10
2019-06-10T12:30:16.149Z,13.00
2019-06-10T12:32:45.858Z,12.90
2019-06-10T12:35:16.016Z,12.90
2019-06-10T12:37:45.823Z,12.90
2019-06-10T12:40:16.459Z,12.90
2019-06-10T12:42:46.165Z,12.90
2019-06-10T12:45:16.622Z,12.80
2019-06-10T12:47:46.417Z,12.80
2019-06-10T12:50:16.629Z,12.70
2019-06-10T12:52:46.313Z,12.70
2019-06-10T12:55:16.516Z,12.70
2019-06-10T12:57:46.206Z,12.70
2019-06-10T13:00:23.037Z,12.60
2019-06-10T13:02:48.699Z,12.60
2019-06-10T13:05:18.615Z,12.70
2019-06-10T13:07:49.562Z,12.60
2019-06-10T13:10:38.874Z,12.60
2019-06-10T13:13:09.316Z,12.60
2019-06-10T13:15:39.190Z,12.50
2019-06-10T13:18:13.687Z,12.50
2019-06-10T13:20:43.087Z,12.50
2019-06-10T13:23:23.041Z,12.50
2019-06-10T13:25:54.328Z,12.50
2019-06-10T13:28:15.234Z,12.40
2019-06-10T13:30:45.091Z,12.40
2019-06-10T13:33:14.917Z,12.40
2019-06-10T13:35:44.765Z,12.40
2019-06-10T13:38:14.492Z,12.50
2019-06-10T13:40:45.240Z,12.40
2019-06-10T13:43:14.937Z,12.40
2019-06-10T13:45:44.673Z,12.40
2019-06-10T13:48:15.086Z,12.40
2019-06-10T13:50:44.930Z,12.30
2019-06-10T13:53:14.638Z,12.20
2019-06-10T13:55:44.515Z,12.10
2019-06-10T13:58:14.782Z,12.10
2019-06-10T14:00:46.700Z,12.10
2019-06-10T14:03:16.479Z,12.00
2019-06-10T14:05:48.343Z,11.90
2019-06-10T14:08:18.427Z,11.90
2019-06-10T14:10:48.091Z,11.90
2019-06-10T14:13:18.031Z,11.90
2019-06-10T14:15:47.814Z,11.90
2019-06-10T14:18:17.586Z,11.90
2019-06-10T14:20:47.373Z,12.00
2019-06-10T14:23:17.636Z,12.00
2019-06-10T14:25:47.589Z,12.10
2019-06-10T14:28:38.678Z,12.10
2019-06-10T14:30:48.798Z,12.20
2019-06-10T14:33:18.544Z,12.30
2019-06-10T14:35:49.995Z,12.30
2019-06-10T14:38:22.008Z,12.40
2019-06-10T14:40:52.645Z,12.40
2019-06-10T14:43:23.485Z,12.40
2019-06-10T14:45:53.658Z,12.50
2019-06-10T14:48:23.828Z,12.60
2019-06-10T14:50:53.780Z,12.60
2019-06-10T14:53:23.532Z,12.60
2019-06-10T14:55:53.659Z,12.70
2019-06-10T14:58:23.561Z,12.70
2019-06-10T15:00:54.538Z,12.60
2019-06-10T15:03:25.771Z,12.60
2019-06-10T15:05:55.558Z,12.50
2019-06-10T15:08:26.335Z,12.40
2019-06-10T15:10:57.448Z,12.50
2019-06-10T15:13:27.221Z,12.50
2019-06-10T15:15:56.996Z,12.50
2019-06-10T15:18:26.720Z,12.50
2019-06-10T15:20:56.633Z,12.40
2019-06-10T15:23:26.318Z,12.40
2019-06-10T15:25:57.197Z,12.30
2019-06-10T15:28:27.282Z,12.30
2019-06-10T15:30:57.163Z,12.30
2019-06-10T15:33:26.985Z,12.30
2019-06-10T15:35:56.748Z,12.30
2019-06-10T15:38:26.535Z,12.20
2019-06-10T15:40:56.416Z,12.20
2019-06-10T15:43:26.203Z,12.20
2019-06-10T15:45:56.043Z,12.20
2019-06-10T15:48:25.712Z,12.20
2019-06-10T15:50:55.559Z,12.20
2019-06-10T15:53:25.970Z,12.10
2019-06-10T15:56:13.097Z,12.10
2019-06-10T15:58:27.604Z,12.10
2019-06-10T16:00:57.248Z,12.10
2019-06-10T16:03:27.132Z,12.20
2019-06-10T16:05:56.914Z,12.30
2019-06-10T16:08:26.655Z,12.40
2019-06-10T16:10:56.460Z,12.50
2019-06-10T16:13:26.228Z,12.60
2019-06-10T16:15:56.008Z,12.60
2019-06-10T16:18:27.907Z,12.70
2019-06-10T16:20:57.249Z,12.70
2019-06-10T16:23:27.010Z,12.90
2019-06-10T16:25:57.021Z,12.90
2019-06-10T16:28:27.709Z,13.00
2019-06-10T16:30:57.727Z,13.00
2019-06-10T16:33:27.827Z,13.10
2019-06-10T16:35:57.831Z,13.20
2019-06-10T16:38:27.502Z,13.20
2019-06-10T16:40:57.294Z,13.30
2019-06-10T16:43:27.714Z,13.30
2019-06-10T16:45:57.598Z,13.40
2019-06-10T16:48:27.287Z,13.40
2019-06-10T16:50:57.053Z,13.40
2019-06-10T16:53:30.185Z,13.40
2019-06-10T16:55:58.109Z,13.40
2019-06-10T16:58:28.485Z,13.50
2019-06-10T17:00:59.481Z,13.60
2019-06-10T17:03:30.771Z,13.70
2019-06-10T17:06:02.493Z,13.80
2019-06-10T17:08:33.400Z,13.90
2019-06-10T17:11:03.566Z,14.00
2019-06-10T17:13:33.388Z,14.00
2019-06-10T17:16:03.557Z,14.00
2019-06-10T17:18:33.810Z,13.90
2019-06-10T17:21:04.182Z,13.90
2019-06-10T17:23:36.575Z,13.90
2019-06-10T17:26:06.645Z,13.90
2019-06-10T17:28:37.093Z,13.90
2019-06-10T17:31:07.335Z,14.00
2019-06-10T17:33:37.142Z,14.00
2019-06-10T17:36:06.922Z,14.00
2019-06-10T17:38:36.721Z,14.00
2019-06-10T17:41:06.578Z,14.10
2019-06-10T17:43:36.258Z,14.40
2019-06-10T17:46:05.899Z,14.60
2019-06-10T17:48:35.601Z,14.90
2019-06-10T17:51:05.397Z,15.10
2019-06-10T17:53:35.555Z,15.40
2019-06-10T17:56:05.323Z,15.50
2019-06-10T17:58:50.267Z,15.60
2019-06-10T18:01:06.512Z,15.90
2019-06-10T18:03:39.693Z,16.00
2019-06-10T18:06:07.712Z,15.90
2019-06-10T18:08:40.584Z,15.70
2019-06-10T18:11:08.797Z,15.60
2019-06-10T18:13:38.773Z,15.30
2019-06-10T18:16:08.489Z,15.10
2019-06-10T18:18:38.112Z,14.90
2019-06-10T18:21:07.831Z,14.70
2019-06-10T18:23:39.248Z,14.50
2019-06-10T18:26:09.013Z,14.30
2019-06-10T18:28:59.876Z,14.20
2019-06-10T18:31:10.137Z,14.00
2019-06-10T18:33:42.320Z,13.80
2019-06-10T18:36:12.206Z,13.60
2019-06-10T18:38:43.307Z,13.50
2019-06-10T18:41:13.342Z,13.50
2019-06-10T18:43:44.042Z,13.50
2019-06-10T18:46:13.692Z,13.50
2019-06-10T18:48:43.533Z,13.40
2019-06-10T18:51:13.414Z,13.60
2019-06-10T18:53:43.556Z,14.10
2019-06-10T18:56:13.321Z,14.70
2019-06-10T18:58:43.640Z,15.20
2019-06-10T19:01:13.310Z,15.80
2019-06-10T19:03:43.303Z,16.40
2019-06-10T19:06:13.215Z,16.90
2019-06-10T19:08:44.267Z,17.30
2019-06-10T19:11:14.429Z,17.60
2019-06-10T19:13:45.624Z,17.60
2019-06-10T19:16:15.347Z,17.40
2019-06-10T19:18:45.053Z,17.20
2019-06-10T19:21:14.847Z,17.10
2019-06-10T19:23:44.545Z,17.10
2019-06-10T19:26:14.367Z,16.80
2019-06-10T19:28:45.065Z,16.60
2019-06-10T19:31:15.840Z,16.40
2019-06-10T19:33:45.678Z,16.40
2019-06-10T19:36:15.403Z,16.60
2019-06-10T19:38:45.189Z,16.70
2019-06-10T19:41:14.995Z,16.80
2019-06-10T19:43:45.529Z,16.80
2019-06-10T19:46:15.458Z,16.70
2019-06-10T19:48:57.343Z,16.70
2019-06-10T19:51:18.256Z,16.60
2019-06-10T19:53:48.267Z,16.40
2019-06-10T19:56:19.043Z,16.20
2019-06-10T19:58:48.710Z,15.80
2019-06-10T20:01:18.348Z,15.50
2019-06-10T20:03:48.219Z,15.20
2019-06-10T20:06:17.928Z,14.90
2019-06-10T20:08:48.665Z,14.70
2019-06-10T20:11:18.431Z,14.50
2019-06-10T20:13:48.295Z,14.40
2019-06-10T20:16:19.369Z,14.20
2019-06-10T20:18:49.855Z,14.10
2019-06-10T20:21:25.088Z,14.00
2019-06-10T20:23:54.975Z,13.90
2019-06-10T20:26:27.944Z,13.90
2019-06-10T20:28:57.806Z,13.80
2019-06-10T20:31:27.587Z,13.70
2019-06-10T20:33:57.405Z,13.50
2019-06-10T20:36:27.477Z,13.40
2019-06-10T20:38:57.310Z,13.30
2019-06-10T20:41:26.981Z,13.20
2019-06-10T20:43:59.783Z,13.10
2019-06-10T20:46:29.479Z,13.10
2019-06-10T20:48:59.286Z,13.00
2019-06-10T20:51:29.095Z,13.00
2019-06-10T20:53:58.788Z,12.90
2019-06-10T20:56:28.514Z,12.90
2019-06-10T20:58:58.335Z,12.80
2019-06-10T21:01:28.146Z,12.70
2019-06-10T21:03:59.656Z,12.70
2019-06-10T21:06:32.705Z,12.60
2019-06-10T21:09:04.130Z,12.60
2019-06-10T21:11:35.474Z,12.50
2019-06-10T21:14:05.780Z,12.50
2019-06-10T21:16:35.624Z,12.50
2019-06-10T21:19:05.525Z,12.40
2019-06-10T21:21:36.283Z,12.30
2019-06-10T21:24:06.071Z,12.20
2019-06-10T21:26:35.741Z,12.10
2019-06-10T21:29:05.454Z,12.00
2019-06-10T21:31:35.081Z,12.00
2019-06-10T21:34:05.138Z,12.00
2019-06-10T21:36:34.833Z,11.90
2019-06-10T21:39:06.887Z,11.90
2019-06-10T21:41:36.595Z,11.90
2019-06-10T21:44:06.378Z,11.90
2019-06-10T21:46:36.063Z,11.90
2019-06-10T21:49:05.779Z,11.90
2019-06-10T21:51:35.529Z,11.80
2019-06-10T21:54:06.283Z,11.90
2019-06-10T21:56:35.952Z,11.80
2019-06-10T21:59:05.758Z,11.80
2019-06-10T22:01:35.457Z,11.80
2019-06-10T22:04:05.546Z,11.80
2019-06-10T22:06:35.308Z,11.80
2019-06-10T22:09:06.560Z,11.80
2019-06-10T22:11:36.359Z,11.80
2019-06-10T22:14:06.124Z,11.80
2019-06-10T22:16:35.896Z,11.90
2019-06-10T22:19:05.636Z,11.80
2019-06-10T22:21:35.520Z,11.90
2019-06-10T22:24:05.321Z,11.80
2019-06-10T22:26:35.002Z,11.80
2019-06-10T22:29:04.697Z,11.70
2019-06-10T22:31:34.382Z,11.60
2019-06-10T22:34:04.222Z,11.50
2019-06-10T22:36:33.905Z,11.50
2019-06-10T22:39:04.798Z,11.50
2019-06-10T22:41:36.119Z,11.40
2019-06-10T22:44:07.194Z,11.40
2019-06-10T22:46:36.954Z,11.30
2019-06-10T22:49:06.782Z,11.30
2019-06-10T22:51:36.603Z,11.30
2019-06-10T22:54:06.263Z,11.20
2019-06-10T22:56:35.972Z,11.20
2019-06-10T22:59:06.328Z,11.10
2019-06-10T23:01:38.386Z,11.10
2019-06-10T23:04:07.439Z,11.10
2019-06-10T23:06:37.135Z,11.10
2019-06-10T23:09:07.431Z,11.10
2019-06-10T23:11:37.135Z,11.20
2019-06-10T23:14:06.822Z,11.10
2019-06-10T23:16:36.473Z,11.20
2019-06-10T23:19:06.148Z,11.20
2019-06-10T23:21:36.279Z,11.20
2019-06-10T23:24:06.050Z,11.20
2019-06-10T23:26:36.036Z,11.20
2019-06-10T23:29:05.745Z,11.10
2019-06-10T23:31:48.735Z,11.10
2019-06-10T23:34:06.691Z,11.10
2019-06-10T23:36:36.337Z,11.10
2019-06-10T23:39:06.650Z,11.00
2019-06-10T23:41:36.562Z,11.00
2019-06-10T23:44:06.236Z,11.00
2019-06-10T23:46:35.964Z,10.90
2019-06-10T23:49:05.646Z,10.80
2019-06-10T23:51:35.364Z,10.80
2019-06-10T23:54:06.336Z,10.80
2019-06-10T23:56:36.591Z,10.70
2019-06-10T23:59:06.286Z,10.70
